Latest Coastal Weather Observations for Mallacoota

IDV60701

Issued at 9:11 am EDT Thursday 8 December 2016 (issued every 10 minutes, with the page automatically refreshed every 10 minutes)

About coastal observations | Map of coastal stations | Coastal observations for VIC | Marine services | Other Formats
Station Details ID: 084084 Name: MALLACOOTA Lat: -37.60 Lon: 149.73 Height: 22.0 m
Data from the previous 72 hours. | See also: Recent months at Mallacoota
Date/Time
EDT
Temp
°C
Wind Pressure Rain since
9am
mm
Weather Cloud Vis
km
Sea
Height
m
Swell
Dir  Spd
kts
Gust
kts
hPa Trend Height
m
Period
s
Dir
08/09:00am 20.7 N 9 13 1002.5 - 0.0 - - - - - - -
08/08:30am 20.1 N 11 18 1002.7 - 0.0 - - - - - - -
08/08:00am 19.7 N 11 18 1003.0 - 0.0 - - - - - - -
08/07:30am 19.5 N 12 18 1003.2 - 0.0 - - - - - - -
08/07:04am 19.5 N 15 25 1003.8 - 0.0 - - - - - - -
08/07:00am 19.3 N 14 23 1003.9 - 0.0 - - - - - - -
08/06:30am 18.7 N 11 17 1004.1 - 0.0 - - - - - - -
08/06:00am 18.3 N 12 18 1004.3 - 0.0 - - - - - - -
08/05:30am 18.0 N 10 18 1004.7 - 0.0 - - - - - - -
08/05:00am 17.9 N 11 19 1004.7 - 0.0 - - - - - - -
08/04:30am 17.8 N 11 18 1005.0 - 0.0 - - - - - - -
08/04:00am 17.9 N 13 20 1005.7 - 0.0 - - - - - - -
08/03:30am 17.9 N 13 19 1006.2 - 0.0 - - - - - - -
08/03:00am 18.0 N 12 20 1007.1 - 0.0 - - - - - - -
08/02:30am 17.8 N 11 18 1007.7 - 0.0 - - - - - - -
08/02:00am 17.7 N 10 17 1008.6 - 0.0 - - - - - - -
08/01:30am 17.5 N 8 14 1009.1 - 0.0 - - - - - - -
08/01:00am 17.4 N 8 12 1009.8 - 0.0 - - - - - - -
08/12:30am 16.5 N 7 9 1010.3 - 0.0 - - - - - - -
08/12:00am 15.3 N 5 6 1010.6 - 0.0 - - - - - - -
 
Date/Time
EDT
Temp
°C
Wind Pressure Rain since
9am
mm
Weather Cloud Vis
km
Sea
Height
m
Swell
Dir  Spd
kts
Gust
kts
hPa Trend Height
m
Period
s
Dir
07/11:30pm 15.3 N 5 7 1011.1 - 0.0 - - - - - - -
07/11:00pm 15.2 N 5 6 1011.5 - 0.0 - - - - - - -
07/10:30pm 15.1 N 4 5 1012.0 - 0.0 - - - - - - -
07/10:00pm 15.1 N 4 5 1012.2 - 0.0 - - - - - - -
07/09:30pm 15.9 N 5 7 1012.6 - 0.0 - - - - - - -
07/09:00pm 16.9 NNE 8 11 1012.6 - 0.0 - - - - - - -
07/08:30pm 17.1 NNE 9 12 1012.9 - 0.0 - - - - - - -
07/08:00pm 17.4 NNE 10 14 1012.9 - 0.0 - - - - - - -
07/07:30pm 17.8 NE 10 15 1012.8 - 0.0 - - - - - - -
07/07:00pm 17.8 ENE 11 15 1012.9 - 0.0 - - - - - - -
07/06:30pm 17.7 E 11 15 1012.8 - 0.0 - - - - - - -
07/06:00pm 18.0 E 9 12 1013.0 - 0.0 - - - - - - -
07/05:30pm 18.1 E 8 12 1013.0 - 0.0 - - - - - - -
07/05:00pm 18.3 E 7 10 1013.3 - 0.0 - - - - - - -
07/04:30pm 18.5 E 7 9 1013.7 - 0.0 - - - - - - -
07/04:00pm 18.7 E 7 9 1014.0 - 0.0 - - - - - - -
07/03:30pm 18.5 ESE 7 9 1014.2 - 0.0 - - - - - - -
07/03:00pm 19.0 SE 7 10 1014.7 - 0.0 - - - - - - -
07/02:30pm 18.9 SSE 7 11 1014.7 - 0.0 - - - - - - -
07/02:00pm 17.6 S 9 14 1014.7 - 0.0 - - - - - - -
07/01:30pm 17.2 S 12 15 1015.0 - 0.0 - - - - - - -
07/01:00pm 17.5 S 15 17 1015.2 - 0.0 - - - - - - -
07/12:30pm 17.1 S 14 18 1015.5 - 0.0 - - - - - - -
07/12:00pm 17.1 S 16 20 1015.6 - 0.0 - - - - - - -
07/11:30am 17.2 S 14 19 1015.7 - 0.0 - - - - - - -
07/11:00am 16.8 S 13 17 1015.6 - 0.0 - - - - - - -
07/10:30am 17.1 S 12 15 1015.6 - 0.0 - - - - - - -
07/10:00am 17.2 S 11 16 1015.8 - 0.0 - - - - - - -
07/09:30am 16.8 S 9 14 1015.9 - 0.0 - - - - - - -
07/09:00am 17.0 S 7 12 1016.1 - 0.0 - - - - - - -
07/08:30am 16.6 WSW 5 10 1016.1 - 0.0 - - - - - - -
07/08:00am 14.8 WNW 5 7 1016.4 - 0.0 - - - - - - -
07/07:30am 14.5 W 4 7 1016.2 - 0.0 - - - - - - -
07/07:00am 13.9 WNW 4 6 1016.0 - 0.0 - - - - - - -
07/06:30am 13.6 WNW 5 7 1015.6 - 0.0 - - - - - - -
07/06:00am 13.2 WNW 5 7 1015.3 - 0.0 - - - - - - -
07/05:30am 12.9 WNW 4 6 1015.0 - 0.0 - - - - - - -
07/05:00am 13.1 WNW 5 7 1014.6 - 0.0 - - - - - - -
07/04:30am 13.2 WNW 5 8 1014.1 - 0.0 - - - - - - -
07/04:00am 13.2 W 5 8 1013.8 - 0.0 - - - - - - -
07/03:30am 13.2 WNW 5 8 1013.9 - 0.0 - - - - - - -
07/03:00am 13.0 WNW 5 8 1014.0 - 0.0 - - - - - - -
07/02:30am 12.8 WNW 6 10 1014.1 - 0.0 - - - - - - -
07/02:00am 12.6 WNW 6 8 1014.4 - 0.0 - - - - - - -
07/01:30am 12.1 WNW 6 8 1014.4 - 0.0 - - - - - - -
07/01:00am 11.8 WNW 5 7 1014.6 - 0.0 - - - - - - -
07/12:30am 12.0 W 5 7 1014.6 - 0.0 - - - - - - -
07/12:00am 12.3 W 5 7 1014.8 - 0.0 - - - - - - -
 
Date/Time
EDT
Temp
°C
Wind Pressure Rain since
9am
mm
Weather Cloud Vis
km
Sea
Height
m
Swell
Dir  Spd
kts
Gust
kts
hPa Trend Height
m
Period
s
Dir
06/11:30pm 13.0 W 5 8 1014.9 - 0.0 - - - - - - -
06/11:00pm 13.0 WNW 4 6 1014.8 - 0.0 - - - - - - -
06/10:30pm 13.5 W 4 5 1014.5 - 0.0 - - - - - - -
06/10:00pm 14.1 WSW 6 9 1014.6 - 0.0 - - - - - - -
06/09:30pm 14.5 SW 6 12 1014.5 - 0.0 - - - - - - -
06/09:00pm 14.6 SW 7 12 1014.0 - 0.0 - - - - - - -
06/08:30pm 14.9 SW 8 12 1013.7 - 0.0 - - - - - - -
06/08:00pm 15.1 SW 8 13 1013.5 - 0.0 - - - - - - -
06/07:30pm 15.4 SW 6 10 1013.4 - 0.0 - - - - - - -
06/07:00pm 15.8 SW 8 13 1013.0 - 0.0 - - - - - - -
06/06:30pm 15.8 SSW 9 13 1012.7 - 0.0 - - - - - - -
06/06:00pm 15.7 SW 7 13 1012.3 - 0.0 - - - - - - -
06/05:30pm 15.5 SSW 8 12 1011.9 - 0.0 - - - - - - -
06/05:00pm 15.4 SSW 9 15 1012.1 - 0.0 - - - - - - -
06/04:30pm 15.9 SSW 10 17 1011.8 - 0.0 - - - - - - -
06/04:00pm 15.9 SSW 7 11 1011.9 - 0.0 - - - - - - -
06/03:30pm 15.7 SSW 9 13 1011.7 - 0.0 - - - - - - -
06/03:00pm 15.4 SSW 8 12 1011.7 - 0.0 - - - - - - -
06/02:30pm 15.6 SSW 8 12 1011.7 - 0.0 - - - - - - -
06/02:00pm 15.6 SSW 7 11 1011.6 - 0.0 - - - - - - -
06/01:30pm 15.5 SSW 8 12 1011.8 - 0.0 - - - - - - -
06/01:00pm 16.0 SSW 9 13 1011.8 - 0.0 - - - - - - -
06/12:30pm 16.7 SSW 8 12 1012.0 - 0.0 - - - - - - -
06/12:00pm 17.1 S 7 11 1011.7 - 0.0 - - - - - - -
06/11:30am 17.4 SW 6 9 1012.2 - 0.0 - - - - - - -
06/11:00am 17.4 SSW 6 11 1012.3 - 0.0 - - - - - - -
06/10:30am 17.2 SSW 7 11 1012.6 - 0.0 - - - - - - -
06/10:00am 17.1 S 7 8 1012.3 - 0.0 - - - - - - -
06/09:30am 17.3 SSE 4 6 1012.5 - 0.0 - - - - - - -
06/09:00am 17.1 SE 1 4 1012.4 - 0.0 - - - - - - -
06/08:30am 16.9 ENE 3 4 1011.9 - 0.0 - - - - - - -
06/08:00am 16.7 NNE 4 5 1011.5 - 0.0 - - - - - - -
06/07:30am 16.3 N 3 5 1011.6 - 0.0 - - - - - - -
06/07:00am 15.9 CALM 0 3 1011.5 - 0.0 - - - - - - -
06/06:30am 15.6 N 3 5 1011.1 - 0.0 - - - - - - -
06/06:00am 15.3 NNW 3 4 1011.3 - 0.0 - - - - - - -
06/05:30am 15.4 W 3 4 1011.4 - 0.0 - - - - - - -
06/05:00am 15.5 WNW 1 4 1011.0 - 0.0 - - - - - - -
06/04:30am 15.5 NW 1 4 1011.3 - 0.0 - - - - - - -
06/04:00am 15.6 CALM 0 0 1011.2 - 0.0 - - - - - - -
06/03:30am 15.7 CALM 0 4 1012.0 - 0.0 - - - - - - -
06/03:00am 15.7 WNW 1 3 1012.7 - 0.0 - - - - - - -
06/02:30am 15.7 W 1 4 1013.0 - 0.0 - - - - - - -
06/02:00am 15.8 WNW 1 3 1013.2 - 0.0 - - - - - - -
06/01:30am 15.8 NW 1 5 1012.6 - 0.0 - - - - - - -
06/01:00am 15.9 WNW 1 3 1012.9 - 0.0 - - - - - - -
06/12:30am 16.0 CALM 0 3 1013.3 - 0.0 - - - - - - -
06/12:00am 16.1 WSW 3 5 1014.9 - 0.0 - - - - - - -
 
Date/Time
EDT
Temp
°C
Wind Pressure Rain since
9am
mm
Weather Cloud Vis
km
Sea
Height
m
Swell
Dir  Spd
kts
Gust
kts
hPa Trend Height
m
Period
s
Dir
05/11:30pm 16.1 SW 3 5 1014.5 - 0.0 - - - - - - -
05/11:00pm 16.2 W 4 5 1014.4 - 0.0 - - - - - - -
05/10:30pm 16.2 CALM 0 0 1014.1 - 0.0 - - - - - - -
05/10:00pm 16.2 CALM 0 0 1014.1 - 0.0 - - - - - - -
05/09:30pm 16.1 SW 4 6 1014.2 - 0.0 - - - - - - -
05/09:00pm 16.1 WSW 3 5 1013.9 - 0.0 - - - - - - -
05/08:30pm 16.1 WSW 3 5 1013.9 - 0.0 - - - - - - -
05/08:00pm 16.0 SW 5 7 1013.6 - 0.0 - - - - - - -
05/07:30pm 16.1 SW 5 6 1013.4 - 0.0 - - - - - - -
05/07:00pm 16.2 SSW 7 13 1013.3 - 0.0 - - - - - - -
05/06:30pm 17.0 SSW 8 12 1012.8 - 0.0 - - - - - - -
05/06:00pm 17.3 SSW 9 13 1012.4 - 0.0 - - - - - - -
05/05:30pm 17.5 SSW 8 14 1012.1 - 0.0 - - - - - - -
05/05:00pm 17.8 SSW 12 19 1011.9 - 0.0 - - - - - - -
05/04:30pm 17.8 SSW 12 17 1011.6 - 0.0 - - - - - - -
05/04:00pm 18.6 SSW 13 19 1011.4 - 0.0 - - - - - - -
05/03:30pm 18.8 SSW 11 17 1011.0 - 0.0 - - - - - - -
05/03:00pm 19.6 SSW 12 19 1010.7 - 0.0 - - - - - - -
05/02:30pm 20.2 SSW 13 20 1010.2 - 0.0 - - - - - - -
05/02:00pm 20.1 SSW 15 21 1009.9 - 0.0 - - - - - - -
05/01:30pm 19.3 SSW 16 22 1009.8 - 0.0 - - - - - - -
05/01:00pm 22.0 SSW 11 16 1009.7 - 0.0 - - - - - - -
05/12:30pm 22.7 SSW 12 21 1009.5 - 0.0 - - - - - - -
05/12:00pm 23.0 SSW 14 22 1009.1 - 0.0 - - - - - - -
05/11:39am 22.4 SSW 15 27 1009.3 - 0.0 - - - - - - -
05/11:30am 22.7 SSW 13 21 1009.2 - 0.0 - - - - - - -
05/11:00am 22.9 SSW 20 32 1008.2 - 0.0 - - - - - - -
05/10:50am 23.1 SSW 20 36 1007.9 - 0.0 - - - - - - -
05/10:41am 23.8 NE 8 30 1007.4 - 0.0 - - - - - - -
05/10:30am 27.5 NNW 4 8 1006.6 - 0.0 - - - - - - -
05/10:00am 26.7 NNW 6 9 1006.6 - 0.0 - - - - - - -
05/09:30am 24.8 N 7 9 1006.8 - 0.0 - - - - - - -

Other Formats:

Comma delimited format used in spreadsheet applications
http://www.bom.gov.au/fwo/IDV60701/IDV60701.94935.axf

JavaScript Object Notation format (JSON) in row-major order
http://www.bom.gov.au/fwo/IDV60701/IDV60701.94935.json